sensor_id;sensor_type;location;lat;lon;timestamp;temperature;humidity
76607;DHT22;65498;50.916;4.698;2022-12-07T00:01:30;21.40;47.20
76607;DHT22;65498;50.916;4.698;2022-12-07T00:03:59;21.40;47.10
76607;DHT22;65498;50.916;4.698;2022-12-07T00:06:29;21.40;47.30
76607;DHT22;65498;50.916;4.698;2022-12-07T00:08:58;21.40;47.40
76607;DHT22;65498;50.916;4.698;2022-12-07T00:11:26;21.30;47.40
76607;DHT22;65498;50.916;4.698;2022-12-07T00:13:56;21.30;47.20
76607;DHT22;65498;50.916;4.698;2022-12-07T00:16:26;21.40;47.20
76607;DHT22;65498;50.916;4.698;2022-12-07T00:18:53;21.40;47.10
76607;DHT22;65498;50.916;4.698;2022-12-07T00:21:26;21.40;47.10
76607;DHT22;65498;50.916;4.698;2022-12-07T00:23:55;21.40;47.40
76607;DHT22;65498;50.916;4.698;2022-12-07T00:26:28;21.30;47.50
76607;DHT22;65498;50.916;4.698;2022-12-07T00:28:59;21.30;47.70
76607;DHT22;65498;50.916;4.698;2022-12-07T00:31:30;21.20;47.60
76607;DHT22;65498;50.916;4.698;2022-12-07T00:33:59;21.30;47.60
76607;DHT22;65498;50.916;4.698;2022-12-07T00:36:27;21.30;47.70
76607;DHT22;65498;50.916;4.698;2022-12-07T00:38:56;21.30;47.70
76607;DHT22;65498;50.916;4.698;2022-12-07T00:41:25;21.30;47.70
76607;DHT22;65498;50.916;4.698;2022-12-07T00:43:53;21.30;47.50
76607;DHT22;65498;50.916;4.698;2022-12-07T00:46:21;21.30;47.40
76607;DHT22;65498;50.916;4.698;2022-12-07T00:48:50;21.40;47.40
76607;DHT22;65498;50.916;4.698;2022-12-07T00:51:23;21.30;47.50
76607;DHT22;65498;50.916;4.698;2022-12-07T00:53:49;21.30;47.50
76607;DHT22;65498;50.916;4.698;2022-12-07T00:56:28;21.30;47.40
76607;DHT22;65498;50.916;4.698;2022-12-07T00:59:01;21.30;47.40
76607;DHT22;65498;50.916;4.698;2022-12-07T01:01:31;21.30;47.40
76607;DHT22;65498;50.916;4.698;2022-12-07T01:03:59;21.20;47.60
76607;DHT22;65498;50.916;4.698;2022-12-07T01:06:30;21.20;47.80
76607;DHT22;65498;50.916;4.698;2022-12-07T01:08:58;21.20;47.70
76607;DHT22;65498;50.916;4.698;2022-12-07T01:11:29;21.20;47.50
76607;DHT22;65498;50.916;4.698;2022-12-07T01:13:59;21.30;47.40
76607;DHT22;65498;50.916;4.698;2022-12-07T01:16:29;21.30;47.30
76607;DHT22;65498;50.916;4.698;2022-12-07T01:18:58;21.30;47.20
76607;DHT22;65498;50.916;4.698;2022-12-07T01:21:31;21.30;47.30
76607;DHT22;65498;50.916;4.698;2022-12-07T01:24:02;21.30;47.40
76607;DHT22;65498;50.916;4.698;2022-12-07T01:26:30;21.30;47.40
76607;DHT22;65498;50.916;4.698;2022-12-07T01:28:57;21.30;47.30
76607;DHT22;65498;50.916;4.698;2022-12-07T01:31:27;21.40;47.10
76607;DHT22;65498;50.916;4.698;2022-12-07T01:33:57;21.40;47.10
76607;DHT22;65498;50.916;4.698;2022-12-07T01:36:28;21.40;47.00
76607;DHT22;65498;50.916;4.698;2022-12-07T01:38:59;21.30;47.00
76607;DHT22;65498;50.916;4.698;2022-12-07T01:41:30;21.30;47.30
76607;DHT22;65498;50.916;4.698;2022-12-07T01:46:54;21.20;47.60
76607;DHT22;65498;50.916;4.698;2022-12-07T01:52:30;21.10;47.90
76607;DHT22;65498;50.916;4.698;2022-12-07T01:54:57;21.20;48.50
76607;DHT22;65498;50.916;4.698;2022-12-07T01:57:24;21.20;47.70
76607;DHT22;65498;50.916;4.698;2022-12-07T01:59:52;21.30;47.50
76607;DHT22;65498;50.916;4.698;2022-12-07T02:02:26;21.30;47.40
76607;DHT22;65498;50.916;4.698;2022-12-07T02:04:56;21.30;47.50
76607;DHT22;65498;50.916;4.698;2022-12-07T02:07:26;21.20;47.40
76607;DHT22;65498;50.916;4.698;2022-12-07T02:09:55;21.20;47.50
76607;DHT22;65498;50.916;4.698;2022-12-07T02:12:24;21.20;47.40
76607;DHT22;65498;50.916;4.698;2022-12-07T02:14:52;21.20;47.40
76607;DHT22;65498;50.916;4.698;2022-12-07T02:17:32;21.20;47.40
76607;DHT22;65498;50.916;4.698;2022-12-07T02:20:00;21.20;47.40
76607;DHT22;65498;50.916;4.698;2022-12-07T02:25:39;21.20;47.50
76607;DHT22;65498;50.916;4.698;2022-12-07T02:28:11;21.20;47.50
76607;DHT22;65498;50.916;4.698;2022-12-07T02:30:40;21.20;47.50
76607;DHT22;65498;50.916;4.698;2022-12-07T02:33:17;21.20;47.30
76607;DHT22;65498;50.916;4.698;2022-12-07T02:35:48;21.20;47.50
76607;DHT22;65498;50.916;4.698;2022-12-07T02:40:54;21.20;47.30
76607;DHT22;65498;50.916;4.698;2022-12-07T02:43:27;21.20;47.30
76607;DHT22;65498;50.916;4.698;2022-12-07T02:46:04;21.20;47.40
76607;DHT22;65498;50.916;4.698;2022-12-07T02:48:29;21.20;47.40
76607;DHT22;65498;50.916;4.698;2022-12-07T02:50:58;21.20;47.50
76607;DHT22;65498;50.916;4.698;2022-12-07T02:53:34;21.20;47.60
76607;DHT22;65498;50.916;4.698;2022-12-07T02:56:20;21.10;47.50
76607;DHT22;65498;50.916;4.698;2022-12-07T03:04:39;21.20;47.40
76607;DHT22;65498;50.916;4.698;2022-12-07T03:10:01;21.20;47.30
76607;DHT22;65498;50.916;4.698;2022-12-07T03:12:44;21.20;47.30
76607;DHT22;65498;50.916;4.698;2022-12-07T03:15:29;21.20;47.40
76607;DHT22;65498;50.916;4.698;2022-12-07T03:17:49;21.20;47.80
76607;DHT22;65498;50.916;4.698;2022-12-07T03:20:20;21.20;47.20
76607;DHT22;65498;50.916;4.698;2022-12-07T03:22:49;21.20;47.40
76607;DHT22;65498;50.916;4.698;2022-12-07T03:25:18;21.20;47.30
76607;DHT22;65498;50.916;4.698;2022-12-07T03:27:54;21.10;47.40
76607;DHT22;65498;50.916;4.698;2022-12-07T03:30:27;21.10;47.50
76607;DHT22;65498;50.916;4.698;2022-12-07T03:32:59;21.10;47.50
76607;DHT22;65498;50.916;4.698;2022-12-07T03:35:39;21.10;47.50
76607;DHT22;65498;50.916;4.698;2022-12-07T03:41:15;21.10;47.30
76607;DHT22;65498;50.916;4.698;2022-12-07T03:43:43;21.10;47.30
76607;DHT22;65498;50.916;4.698;2022-12-07T03:46:39;21.10;47.30
76607;DHT22;65498;50.916;4.698;2022-12-07T03:49:28;21.10;47.30
76607;DHT22;65498;50.916;4.698;2022-12-07T03:52:17;21.20;47.40
76607;DHT22;65498;50.916;4.698;2022-12-07T03:54:52;21.20;47.30
76607;DHT22;65498;50.916;4.698;2022-12-07T03:57:19;21.20;47.30
76607;DHT22;65498;50.916;4.698;2022-12-07T03:59:48;21.20;47.20
76607;DHT22;65498;50.916;4.698;2022-12-07T04:02:16;21.20;47.30
76607;DHT22;65498;50.916;4.698;2022-12-07T04:04:44;21.20;47.40
76607;DHT22;65498;50.916;4.698;2022-12-07T04:07:11;21.10;47.40
76607;DHT22;65498;50.916;4.698;2022-12-07T04:09:39;21.10;47.40
76607;DHT22;65498;50.916;4.698;2022-12-07T04:12:07;21.10;47.30
76607;DHT22;65498;50.916;4.698;2022-12-07T04:14:35;21.10;47.30
76607;DHT22;65498;50.916;4.698;2022-12-07T04:17:02;21.10;47.40
76607;DHT22;65498;50.916;4.698;2022-12-07T04:19:32;21.10;47.40
76607;DHT22;65498;50.916;4.698;2022-12-07T04:22:01;21.10;47.40
76607;DHT22;65498;50.916;4.698;2022-12-07T04:24:29;21.10;47.20
76607;DHT22;65498;50.916;4.698;2022-12-07T04:26:57;21.10;47.30
76607;DHT22;65498;50.916;4.698;2022-12-07T04:29:25;21.20;47.20
76607;DHT22;65498;50.916;4.698;2022-12-07T04:31:54;21.10;47.20
76607;DHT22;65498;50.916;4.698;2022-12-07T04:34:21;21.10;47.20
76607;DHT22;65498;50.916;4.698;2022-12-07T04:36:49;21.10;47.20
76607;DHT22;65498;50.916;4.698;2022-12-07T04:39:25;21.10;47.30
76607;DHT22;65498;50.916;4.698;2022-12-07T04:41:53;21.10;47.20
76607;DHT22;65498;50.916;4.698;2022-12-07T04:44:22;21.10;47.40
76607;DHT22;65498;50.916;4.698;2022-12-07T04:46:51;21.10;47.30
76607;DHT22;65498;50.916;4.698;2022-12-07T04:49:19;21.10;47.40
76607;DHT22;65498;50.916;4.698;2022-12-07T04:51:47;21.00;47.40
76607;DHT22;65498;50.916;4.698;2022-12-07T04:54:15;21.00;47.50
76607;DHT22;65498;50.916;4.698;2022-12-07T04:56:43;21.10;47.40
76607;DHT22;65498;50.916;4.698;2022-12-07T04:59:12;21.10;47.30
76607;DHT22;65498;50.916;4.698;2022-12-07T05:01:40;21.10;47.20
76607;DHT22;65498;50.916;4.698;2022-12-07T05:04:09;21.10;47.20
76607;DHT22;65498;50.916;4.698;2022-12-07T05:06:37;21.10;47.20
76607;DHT22;65498;50.916;4.698;2022-12-07T05:09:04;21.10;47.10
76607;DHT22;65498;50.916;4.698;2022-12-07T05:11:32;21.10;47.10
76607;DHT22;65498;50.916;4.698;2022-12-07T05:16:36;21.10;47.20
76607;DHT22;65498;50.916;4.698;2022-12-07T05:19:04;21.10;47.00
76607;DHT22;65498;50.916;4.698;2022-12-07T05:21:32;21.10;47.30
76607;DHT22;65498;50.916;4.698;2022-12-07T05:24:00;21.00;47.30
76607;DHT22;65498;50.916;4.698;2022-12-07T05:26:28;21.00;47.40
76607;DHT22;65498;50.916;4.698;2022-12-07T05:28:56;21.00;47.40
76607;DHT22;65498;50.916;4.698;2022-12-07T05:31:25;21.00;47.50
76607;DHT22;65498;50.916;4.698;2022-12-07T05:33:53;21.00;47.40
76607;DHT22;65498;50.916;4.698;2022-12-07T05:36:21;21.00;47.40
76607;DHT22;65498;50.916;4.698;2022-12-07T05:38:48;21.00;47.30
76607;DHT22;65498;50.916;4.698;2022-12-07T05:41:18;21.00;47.10
76607;DHT22;65498;50.916;4.698;2022-12-07T05:44:05;21.00;47.10
76607;DHT22;65498;50.916;4.698;2022-12-07T05:46:33;21.00;47.20
76607;DHT22;65498;50.916;4.698;2022-12-07T05:49:01;21.00;47.20
76607;DHT22;65498;50.916;4.698;2022-12-07T05:51:29;21.00;47.10
76607;DHT22;65498;50.916;4.698;2022-12-07T05:53:57;21.00;47.10
76607;DHT22;65498;50.916;4.698;2022-12-07T05:56:25;21.00;47.00
76607;DHT22;65498;50.916;4.698;2022-12-07T05:58:53;21.00;47.00
76607;DHT22;65498;50.916;4.698;2022-12-07T06:01:39;21.00;47.00
76607;DHT22;65498;50.916;4.698;2022-12-07T06:04:07;21.00;47.20
76607;DHT22;65498;50.916;4.698;2022-12-07T06:06:35;21.00;47.40
76607;DHT22;65498;50.916;4.698;2022-12-07T06:09:03;21.00;47.40
76607;DHT22;65498;50.916;4.698;2022-12-07T06:11:31;21.00;47.40
76607;DHT22;65498;50.916;4.698;2022-12-07T06:14:17;20.90;47.30
76607;DHT22;65498;50.916;4.698;2022-12-07T06:16:44;20.90;47.30
76607;DHT22;65498;50.916;4.698;2022-12-07T06:19:12;20.90;47.30
76607;DHT22;65498;50.916;4.698;2022-12-07T06:21:40;21.00;47.10
76607;DHT22;65498;50.916;4.698;2022-12-07T06:24:09;21.00;47.20
76607;DHT22;65498;50.916;4.698;2022-12-07T06:26:38;21.00;47.10
76607;DHT22;65498;50.916;4.698;2022-12-07T06:29:06;21.00;47.10
76607;DHT22;65498;50.916;4.698;2022-12-07T06:31:34;21.00;47.00
76607;DHT22;65498;50.916;4.698;2022-12-07T06:34:04;21.00;47.00
76607;DHT22;65498;50.916;4.698;2022-12-07T06:36:33;21.00;46.90
76607;DHT22;65498;50.916;4.698;2022-12-07T06:39:00;21.10;47.00
76607;DHT22;65498;50.916;4.698;2022-12-07T06:41:28;21.00;47.00
76607;DHT22;65498;50.916;4.698;2022-12-07T06:43:56;21.00;47.00
76607;DHT22;65498;50.916;4.698;2022-12-07T06:46:24;20.90;47.20
76607;DHT22;65498;50.916;4.698;2022-12-07T06:48:51;20.90;47.40
76607;DHT22;65498;50.916;4.698;2022-12-07T06:51:19;20.90;47.40
76607;DHT22;65498;50.916;4.698;2022-12-07T06:53:46;20.90;47.30
76607;DHT22;65498;50.916;4.698;2022-12-07T06:56:14;20.90;47.20
76607;DHT22;65498;50.916;4.698;2022-12-07T06:58:42;20.90;47.10
76607;DHT22;65498;50.916;4.698;2022-12-07T07:01:15;21.00;47.10
76607;DHT22;65498;50.916;4.698;2022-12-07T07:03:44;21.00;47.10
76607;DHT22;65498;50.916;4.698;2022-12-07T07:06:13;21.00;47.00
76607;DHT22;65498;50.916;4.698;2022-12-07T07:08:40;21.00;47.10
76607;DHT22;65498;50.916;4.698;2022-12-07T07:11:09;21.00;47.30
76607;DHT22;65498;50.916;4.698;2022-12-07T07:13:36;21.00;47.10
76607;DHT22;65498;50.916;4.698;2022-12-07T07:16:05;21.00;47.10
76607;DHT22;65498;50.916;4.698;2022-12-07T07:18:33;21.00;47.00
76607;DHT22;65498;50.916;4.698;2022-12-07T07:21:01;21.00;47.00
76607;DHT22;65498;50.916;4.698;2022-12-07T07:23:28;21.00;47.00
76607;DHT22;65498;50.916;4.698;2022-12-07T07:25:56;20.90;47.30
76607;DHT22;65498;50.916;4.698;2022-12-07T07:28:24;20.90;47.40
76607;DHT22;65498;50.916;4.698;2022-12-07T07:30:52;20.80;47.30
76607;DHT22;65498;50.916;4.698;2022-12-07T07:33:20;20.90;47.30
76607;DHT22;65498;50.916;4.698;2022-12-07T07:35:48;20.90;47.10
76607;DHT22;65498;50.916;4.698;2022-12-07T07:38:16;20.90;47.10
76607;DHT22;65498;50.916;4.698;2022-12-07T07:40:43;20.90;46.90
76607;DHT22;65498;50.916;4.698;2022-12-07T07:43:11;20.90;47.20
76607;DHT22;65498;50.916;4.698;2022-12-07T07:45:39;20.90;47.10
76607;DHT22;65498;50.916;4.698;2022-12-07T07:48:07;20.90;47.00
76607;DHT22;65498;50.916;4.698;2022-12-07T07:50:34;20.90;47.00
76607;DHT22;65498;50.916;4.698;2022-12-07T07:53:02;21.00;47.20
76607;DHT22;65498;50.916;4.698;2022-12-07T07:55:30;20.90;47.30
76607;DHT22;65498;50.916;4.698;2022-12-07T07:57:57;21.00;46.80
76607;DHT22;65498;50.916;4.698;2022-12-07T08:00:25;20.90;47.00
76607;DHT22;65498;50.916;4.698;2022-12-07T08:02:53;20.90;47.20
76607;DHT22;65498;50.916;4.698;2022-12-07T08:05:20;20.90;47.20
76607;DHT22;65498;50.916;4.698;2022-12-07T08:07:48;20.80;47.20
76607;DHT22;65498;50.916;4.698;2022-12-07T08:10:16;20.80;47.80
76607;DHT22;65498;50.916;4.698;2022-12-07T08:12:43;20.90;47.30
76607;DHT22;65498;50.916;4.698;2022-12-07T08:15:30;20.90;47.20
76607;DHT22;65498;50.916;4.698;2022-12-07T08:17:58;20.90;47.10
76607;DHT22;65498;50.916;4.698;2022-12-07T08:20:26;20.80;47.20
76607;DHT22;65498;50.916;4.698;2022-12-07T08:22:53;20.90;47.10
76607;DHT22;65498;50.916;4.698;2022-12-07T08:25:21;20.90;47.20
76607;DHT22;65498;50.916;4.698;2022-12-07T08:27:50;20.90;47.10
76607;DHT22;65498;50.916;4.698;2022-12-07T08:30:19;20.90;46.90
76607;DHT22;65498;50.916;4.698;2022-12-07T08:32:47;21.00;46.60
76607;DHT22;65498;50.916;4.698;2022-12-07T08:35:15;21.00;46.70
76607;DHT22;65498;50.916;4.698;2022-12-07T08:37:42;21.00;46.60
76607;DHT22;65498;50.916;4.698;2022-12-07T08:40:11;20.90;46.60
76607;DHT22;65498;50.916;4.698;2022-12-07T08:42:43;21.00;46.50
76607;DHT22;65498;50.916;4.698;2022-12-07T08:45:13;21.00;46.00
76607;DHT22;65498;50.916;4.698;2022-12-07T08:48:02;21.10;46.10
76607;DHT22;65498;50.916;4.698;2022-12-07T08:50:15;21.30;44.80
76607;DHT22;65498;50.916;4.698;2022-12-07T08:52:44;21.40;44.90
76607;DHT22;65498;50.916;4.698;2022-12-07T08:55:11;21.40;44.00
76607;DHT22;65498;50.916;4.698;2022-12-07T08:57:39;21.40;43.60
76607;DHT22;65498;50.916;4.698;2022-12-07T09:00:08;21.40;43.40
76607;DHT22;65498;50.916;4.698;2022-12-07T09:02:36;21.50;43.20
76607;DHT22;65498;50.916;4.698;2022-12-07T09:05:04;21.50;42.70
76607;DHT22;65498;50.916;4.698;2022-12-07T09:07:33;21.60;42.60
76607;DHT22;65498;50.916;4.698;2022-12-07T09:10:01;21.60;42.70
76607;DHT22;65498;50.916;4.698;2022-12-07T09:12:29;21.60;42.40
76607;DHT22;65498;50.916;4.698;2022-12-07T09:14:56;21.60;42.40
76607;DHT22;65498;50.916;4.698;2022-12-07T09:17:24;21.50;42.50
76607;DHT22;65498;50.916;4.698;2022-12-07T09:19:52;21.50;42.50
76607;DHT22;65498;50.916;4.698;2022-12-07T09:22:20;21.50;42.50
76607;DHT22;65498;50.916;4.698;2022-12-07T09:24:47;21.50;42.60
76607;DHT22;65498;50.916;4.698;2022-12-07T09:27:15;21.50;42.50
76607;DHT22;65498;50.916;4.698;2022-12-07T09:29:44;21.50;42.60
76607;DHT22;65498;50.916;4.698;2022-12-07T09:32:11;21.50;42.60
76607;DHT22;65498;50.916;4.698;2022-12-07T09:34:39;21.50;42.50
76607;DHT22;65498;50.916;4.698;2022-12-07T09:37:07;21.60;42.40
76607;DHT22;65498;50.916;4.698;2022-12-07T09:39:38;21.60;42.20
76607;DHT22;65498;50.916;4.698;2022-12-07T09:42:05;21.60;42.20
76607;DHT22;65498;50.916;4.698;2022-12-07T09:44:34;21.60;42.20
76607;DHT22;65498;50.916;4.698;2022-12-07T09:47:02;21.70;42.00
76607;DHT22;65498;50.916;4.698;2022-12-07T09:49:32;21.70;41.80
76607;DHT22;65498;50.916;4.698;2022-12-07T09:52:02;21.80;41.50
76607;DHT22;65498;50.916;4.698;2022-12-07T09:54:30;21.70;41.50
76607;DHT22;65498;50.916;4.698;2022-12-07T09:56:59;21.70;41.80
76607;DHT22;65498;50.916;4.698;2022-12-07T09:59:26;21.60;41.80
76607;DHT22;65498;50.916;4.698;2022-12-07T10:01:54;21.40;42.10
76607;DHT22;65498;50.916;4.698;2022-12-07T10:04:24;21.30;42.30
76607;DHT22;65498;50.916;4.698;2022-12-07T10:06:53;21.30;42.40
76607;DHT22;65498;50.916;4.698;2022-12-07T10:09:21;21.40;42.30
76607;DHT22;65498;50.916;4.698;2022-12-07T10:12:00;21.30;42.00
76607;DHT22;65498;50.916;4.698;2022-12-07T10:14:29;21.40;42.00
76607;DHT22;65498;50.916;4.698;2022-12-07T10:16:58;21.30;42.40
76607;DHT22;65498;50.916;4.698;2022-12-07T10:19:31;21.30;42.80
76607;DHT22;65498;50.916;4.698;2022-12-07T10:24:40;21.40;42.80
76607;DHT22;65498;50.916;4.698;2022-12-07T10:27:18;21.50;42.80
76607;DHT22;65498;50.916;4.698;2022-12-07T10:29:50;21.50;42.90
76607;DHT22;65498;50.916;4.698;2022-12-07T10:34:49;21.60;42.90
76607;DHT22;65498;50.916;4.698;2022-12-07T10:37:19;21.60;43.00
76607;DHT22;65498;50.916;4.698;2022-12-07T10:39:50;21.60;43.10
76607;DHT22;65498;50.916;4.698;2022-12-07T10:42:18;21.60;43.20
76607;DHT22;65498;50.916;4.698;2022-12-07T10:45:06;21.60;43.40
76607;DHT22;65498;50.916;4.698;2022-12-07T10:56:12;21.60;43.80
76607;DHT22;65498;50.916;4.698;2022-12-07T10:59:04;21.60;43.80
76607;DHT22;65498;50.916;4.698;2022-12-07T11:01:41;21.60;44.00
76607;DHT22;65498;50.916;4.698;2022-12-07T11:04:24;21.70;44.10
76607;DHT22;65498;50.916;4.698;2022-12-07T11:12:57;21.70;44.10
76607;DHT22;65498;50.916;4.698;2022-12-07T11:15:24;21.80;44.10
76607;DHT22;65498;50.916;4.698;2022-12-07T11:24:04;21.90;44.20
76607;DHT22;65498;50.916;4.698;2022-12-07T11:33:00;21.90;44.30
76607;DHT22;65498;50.916;4.698;2022-12-07T11:35:45;21.80;44.60
76607;DHT22;65498;50.916;4.698;2022-12-07T11:38:14;21.70;44.70
76607;DHT22;65498;50.916;4.698;2022-12-07T11:40:50;21.70;44.70
76607;DHT22;65498;50.916;4.698;2022-12-07T11:43:27;21.70;44.80
76607;DHT22;65498;50.916;4.698;2022-12-07T11:46:04;21.70;44.70
76607;DHT22;65498;50.916;4.698;2022-12-07T11:48:55;21.70;44.70
76607;DHT22;65498;50.916;4.698;2022-12-07T11:51:21;21.70;44.60
76607;DHT22;65498;50.916;4.698;2022-12-07T11:53:52;21.80;44.60
76607;DHT22;65498;50.916;4.698;2022-12-07T11:56:22;21.80;44.60
76607;DHT22;65498;50.916;4.698;2022-12-07T12:02:02;21.90;44.50
76607;DHT22;65498;50.916;4.698;2022-12-07T12:07:06;21.90;44.50
76607;DHT22;65498;50.916;4.698;2022-12-07T12:09:39;21.90;44.60
76607;DHT22;65498;50.916;4.698;2022-12-07T12:12:16;21.80;44.70
76607;DHT22;65498;50.916;4.698;2022-12-07T12:20:55;21.80;44.70
76607;DHT22;65498;50.916;4.698;2022-12-07T12:23:46;21.90;44.80
76607;DHT22;65498;50.916;4.698;2022-12-07T12:26:22;21.70;44.10
76607;DHT22;65498;50.916;4.698;2022-12-07T12:28:59;21.80;44.00
76607;DHT22;65498;50.916;4.698;2022-12-07T12:31:36;21.80;44.00
76607;DHT22;65498;50.916;4.698;2022-12-07T12:36:53;21.80;44.00
76607;DHT22;65498;50.916;4.698;2022-12-07T12:39:20;21.80;44.20
76607;DHT22;65498;50.916;4.698;2022-12-07T12:41:54;21.80;44.10
76607;DHT22;65498;50.916;4.698;2022-12-07T12:46:59;21.80;45.30
76607;DHT22;65498;50.916;4.698;2022-12-07T12:49:40;21.90;45.40
76607;DHT22;65498;50.916;4.698;2022-12-07T12:57:38;21.80;45.50
76607;DHT22;65498;50.916;4.698;2022-12-07T13:00:23;21.90;45.50
76607;DHT22;65498;50.916;4.698;2022-12-07T13:02:55;21.90;45.40
76607;DHT22;65498;50.916;4.698;2022-12-07T13:05:23;21.90;45.30
76607;DHT22;65498;50.916;4.698;2022-12-07T13:07:59;22.00;45.30
76607;DHT22;65498;50.916;4.698;2022-12-07T13:15:49;22.00;45.10
76607;DHT22;65498;50.916;4.698;2022-12-07T13:26:23;21.80;45.90
76607;DHT22;65498;50.916;4.698;2022-12-07T13:29:15;21.70;46.10
76607;DHT22;65498;50.916;4.698;2022-12-07T13:31:39;21.70;46.00
76607;DHT22;65498;50.916;4.698;2022-12-07T13:34:32;21.70;46.00
76607;DHT22;65498;50.916;4.698;2022-12-07T13:39:35;21.70;46.00
76607;DHT22;65498;50.916;4.698;2022-12-07T13:42:15;21.70;46.10
76607;DHT22;65498;50.916;4.698;2022-12-07T13:44:39;21.70;46.10
76607;DHT22;65498;50.916;4.698;2022-12-07T13:47:16;21.70;46.00
76607;DHT22;65498;50.916;4.698;2022-12-07T13:49:48;21.70;45.80
76607;DHT22;65498;50.916;4.698;2022-12-07T13:52:19;21.80;45.80
76607;DHT22;65498;50.916;4.698;2022-12-07T13:55:01;21.80;45.80
76607;DHT22;65498;50.916;4.698;2022-12-07T13:57:28;21.70;45.70
76607;DHT22;65498;50.916;4.698;2022-12-07T13:59:58;21.80;45.70
76607;DHT22;65498;50.916;4.698;2022-12-07T14:02:30;21.70;45.60
76607;DHT22;65498;50.916;4.698;2022-12-07T14:05:14;21.70;45.80
76607;DHT22;65498;50.916;4.698;2022-12-07T14:08:02;21.70;45.70
76607;DHT22;65498;50.916;4.698;2022-12-07T14:10:35;21.60;45.90
76607;DHT22;65498;50.916;4.698;2022-12-07T14:13:51;21.70;45.90
76607;DHT22;65498;50.916;4.698;2022-12-07T14:15:34;21.60;46.00
76607;DHT22;65498;50.916;4.698;2022-12-07T14:18:03;21.70;46.00
76607;DHT22;65498;50.916;4.698;2022-12-07T14:20:36;21.70;46.20
76607;DHT22;65498;50.916;4.698;2022-12-07T14:23:05;21.70;46.40
76607;DHT22;65498;50.916;4.698;2022-12-07T14:25:50;21.70;46.40
76607;DHT22;65498;50.916;4.698;2022-12-07T14:28:30;21.70;46.50
76607;DHT22;65498;50.916;4.698;2022-12-07T14:30:59;21.60;46.70
76607;DHT22;65498;50.916;4.698;2022-12-07T14:33:27;21.60;46.80
76607;DHT22;65498;50.916;4.698;2022-12-07T14:35:55;21.60;46.90
76607;DHT22;65498;50.916;4.698;2022-12-07T14:38:25;21.60;46.90
76607;DHT22;65498;50.916;4.698;2022-12-07T14:40:54;21.70;46.90
76607;DHT22;65498;50.916;4.698;2022-12-07T14:43:23;21.70;47.10
76607;DHT22;65498;50.916;4.698;2022-12-07T14:45:51;21.70;47.30
76607;DHT22;65498;50.916;4.698;2022-12-07T14:48:19;21.60;47.20
76607;DHT22;65498;50.916;4.698;2022-12-07T14:50:53;21.60;47.60
76607;DHT22;65498;50.916;4.698;2022-12-07T14:53:20;21.70;47.70
76607;DHT22;65498;50.916;4.698;2022-12-07T14:55:48;21.70;47.60
76607;DHT22;65498;50.916;4.698;2022-12-07T14:58:16;21.70;47.70
76607;DHT22;65498;50.916;4.698;2022-12-07T15:00:45;21.80;47.90
76607;DHT22;65498;50.916;4.698;2022-12-07T15:03:14;21.80;48.00
76607;DHT22;65498;50.916;4.698;2022-12-07T15:05:42;21.80;47.70
76607;DHT22;65498;50.916;4.698;2022-12-07T15:08:15;21.90;48.00
76607;DHT22;65498;50.916;4.698;2022-12-07T15:10:40;21.80;48.10
76607;DHT22;65498;50.916;4.698;2022-12-07T15:13:08;21.70;48.20
76607;DHT22;65498;50.916;4.698;2022-12-07T15:15:54;21.70;48.20
76607;DHT22;65498;50.916;4.698;2022-12-07T15:18:23;21.70;48.40
76607;DHT22;65498;50.916;4.698;2022-12-07T15:20:51;21.70;48.50
76607;DHT22;65498;50.916;4.698;2022-12-07T15:23:18;21.60;48.50
76607;DHT22;65498;50.916;4.698;2022-12-07T15:25:48;21.60;48.60
76607;DHT22;65498;50.916;4.698;2022-12-07T15:28:16;21.60;48.70
76607;DHT22;65498;50.916;4.698;2022-12-07T15:30:44;21.60;48.60
76607;DHT22;65498;50.916;4.698;2022-12-07T15:33:12;21.70;48.70
76607;DHT22;65498;50.916;4.698;2022-12-07T15:35:41;21.70;48.60
76607;DHT22;65498;50.916;4.698;2022-12-07T15:38:10;21.80;48.40
76607;DHT22;65498;50.916;4.698;2022-12-07T15:40:38;21.80;48.60
76607;DHT22;65498;50.916;4.698;2022-12-07T15:43:08;21.80;48.60
76607;DHT22;65498;50.916;4.698;2022-12-07T15:45:37;21.80;48.50
76607;DHT22;65498;50.916;4.698;2022-12-07T15:48:04;21.70;48.50
76607;DHT22;65498;50.916;4.698;2022-12-07T15:50:32;21.80;48.50
76607;DHT22;65498;50.916;4.698;2022-12-07T15:52:59;21.80;48.50
76607;DHT22;65498;50.916;4.698;2022-12-07T15:55:27;21.80;48.40
76607;DHT22;65498;50.916;4.698;2022-12-07T15:57:55;21.80;48.40
76607;DHT22;65498;50.916;4.698;2022-12-07T16:00:23;21.80;48.30
76607;DHT22;65498;50.916;4.698;2022-12-07T16:02:51;21.80;48.40
76607;DHT22;65498;50.916;4.698;2022-12-07T16:05:18;21.80;48.50
76607;DHT22;65498;50.916;4.698;2022-12-07T16:07:46;21.70;48.30
76607;DHT22;65498;50.916;4.698;2022-12-07T16:10:14;21.70;48.50
76607;DHT22;65498;50.916;4.698;2022-12-07T16:12:41;21.60;49.00
76607;DHT22;65498;50.916;4.698;2022-12-07T16:15:09;21.60;48.50
76607;DHT22;65498;50.916;4.698;2022-12-07T16:17:37;21.50;48.70
76607;DHT22;65498;50.916;4.698;2022-12-07T16:20:06;21.60;48.60
76607;DHT22;65498;50.916;4.698;2022-12-07T16:22:34;21.60;48.30
76607;DHT22;65498;50.916;4.698;2022-12-07T16:25:02;21.60;48.60
76607;DHT22;65498;50.916;4.698;2022-12-07T16:27:30;21.60;48.20
76607;DHT22;65498;50.916;4.698;2022-12-07T16:29:58;21.70;48.30
76607;DHT22;65498;50.916;4.698;2022-12-07T16:32:25;21.70;48.10
76607;DHT22;65498;50.916;4.698;2022-12-07T16:34:53;21.70;48.00
76607;DHT22;65498;50.916;4.698;2022-12-07T16:37:21;21.60;47.60
76607;DHT22;65498;50.916;4.698;2022-12-07T16:39:49;21.50;48.10
76607;DHT22;65498;50.916;4.698;2022-12-07T16:42:16;21.60;48.00
76607;DHT22;65498;50.916;4.698;2022-12-07T16:44:44;21.50;47.90
76607;DHT22;65498;50.916;4.698;2022-12-07T16:47:11;21.50;47.80
76607;DHT22;65498;50.916;4.698;2022-12-07T16:49:39;21.50;47.70
76607;DHT22;65498;50.916;4.698;2022-12-07T16:52:07;21.50;47.70
76607;DHT22;65498;50.916;4.698;2022-12-07T16:54:35;21.50;47.70
76607;DHT22;65498;50.916;4.698;2022-12-07T16:57:03;21.50;47.70
76607;DHT22;65498;50.916;4.698;2022-12-07T16:59:30;21.50;47.60
76607;DHT22;65498;50.916;4.698;2022-12-07T17:01:58;21.50;48.10
76607;DHT22;65498;50.916;4.698;2022-12-07T17:04:26;21.50;47.40
76607;DHT22;65498;50.916;4.698;2022-12-07T17:06:54;21.50;47.30
76607;DHT22;65498;50.916;4.698;2022-12-07T17:09:21;21.50;47.30
76607;DHT22;65498;50.916;4.698;2022-12-07T17:11:49;21.60;47.30
76607;DHT22;65498;50.916;4.698;2022-12-07T17:14:17;21.60;47.20
76607;DHT22;65498;50.916;4.698;2022-12-07T17:17:02;21.60;47.00
76607;DHT22;65498;50.916;4.698;2022-12-07T17:19:30;21.60;47.00
76607;DHT22;65498;50.916;4.698;2022-12-07T17:21:58;21.60;46.80
76607;DHT22;65498;50.916;4.698;2022-12-07T17:24:26;21.60;47.00
76607;DHT22;65498;50.916;4.698;2022-12-07T17:26:53;21.60;46.80